createdAt,value
2022-11-28T00:00:46.932Z,55.16
2022-11-28T00:05:48.930Z,54.70
2022-11-28T00:10:50.919Z,54.79
2022-11-28T00:16:00.248Z,54.95
2022-11-28T00:21:07.954Z,54.98
2022-11-28T00:26:22.057Z,55.10
2022-11-28T00:31:30.280Z,54.73
2022-11-28T00:36:32.215Z,54.67
2022-11-28T00:41:35.426Z,55.38
2022-11-28T00:46:37.311Z,55.28
2022-11-28T00:51:39.552Z,55.14
2022-11-28T00:56:41.447Z,55.08
2022-11-28T01:01:44.388Z,54.49
2022-11-28T01:06:49.068Z,55.05
2022-11-28T01:11:53.845Z,54.58
2022-11-28T01:16:55.685Z,55.01
2022-11-28T01:21:57.545Z,54.87
2022-11-28T01:26:59.516Z,55.03
2022-11-28T01:32:01.416Z,55.03
2022-11-28T01:37:03.375Z,55.13
2022-11-28T01:42:05.210Z,55.02
2022-11-28T01:47:07.068Z,54.92
2022-11-28T01:52:13.443Z,54.84
2022-11-28T01:57:19.792Z,54.90
2022-11-28T02:02:36.928Z,55.03
2022-11-28T02:07:40.966Z,55.34
2022-11-28T02:13:05.641Z,54.96
2022-11-28T02:18:31.370Z,55.01
2022-11-28T02:23:38.780Z,55.03
2022-11-28T02:29:11.348Z,55.05
2022-11-28T02:34:21.756Z,55.52
2022-11-28T02:39:41.646Z,55.66
2022-11-28T02:44:55.832Z,55.05
2022-11-28T02:50:12.144Z,55.06
2022-11-28T02:55:15.327Z,55.20
2022-11-28T03:00:23.848Z,55.16
2022-11-28T03:05:43.163Z,55.84
2022-11-28T03:10:57.170Z,55.45
2022-11-28T03:16:16.869Z,55.18
2022-11-28T03:21:33.045Z,55.36
2022-11-28T03:26:47.020Z,55.73
2022-11-28T03:31:57.599Z,56.10
2022-11-28T03:37:11.612Z,55.58
2022-11-28T03:42:21.214Z,55.86
2022-11-28T03:47:28.402Z,56.15
2022-11-28T03:52:35.589Z,56.10
2022-11-28T03:57:47.762Z,55.85
2022-11-28T04:03:02.407Z,55.71
2022-11-28T04:08:19.433Z,55.94
2022-11-28T04:13:26.186Z,56.55
2022-11-28T04:18:40.237Z,56.71
2022-11-28T04:23:45.042Z,56.53
2022-11-28T04:28:50.072Z,56.73
2022-11-28T04:33:58.374Z,57.13
2022-11-28T04:39:01.635Z,56.77
2022-11-28T04:44:13.646Z,56.91
2022-11-28T04:49:15.610Z,56.97
2022-11-28T04:54:33.631Z,57.15
2022-11-28T04:59:35.582Z,58.13
2022-11-28T05:04:38.502Z,57.92
2022-11-28T05:09:40.359Z,57.80
2022-11-28T05:14:42.488Z,58.13
2022-11-28T05:19:44.413Z,57.53
2022-11-28T05:24:46.422Z,58.29
2022-11-28T05:29:52.221Z,58.19
2022-11-28T05:34:54.279Z,58.63
2022-11-28T05:39:56.152Z,58.60
2022-11-28T05:44:58.018Z,58.25
2022-11-28T05:50:00.018Z,58.52
2022-11-28T05:55:01.881Z,59.00
2022-11-28T06:00:04.458Z,58.62
2022-11-28T06:05:40.421Z,58.68
2022-11-28T06:10:35.859Z,58.81
2022-11-28T06:15:38.650Z,58.80
2022-11-28T06:20:40.622Z,59.04
2022-11-28T06:25:42.453Z,58.84
2022-11-28T06:30:44.688Z,58.97
2022-11-28T06:35:46.482Z,58.50
2022-11-28T06:40:48.277Z,58.76
2022-11-28T06:45:50.152Z,58.62
2022-11-28T06:50:53.017Z,59.28
2022-11-28T06:55:55.037Z,59.30
2022-11-28T07:00:56.900Z,59.37
2022-11-28T07:06:04.220Z,59.36
2022-11-28T07:11:12.946Z,59.18
2022-11-28T07:16:21.332Z,58.70
2022-11-28T07:21:24.150Z,59.16
2022-11-28T07:26:26.056Z,58.80
2022-11-28T07:31:32.250Z,59.29
2022-11-28T07:36:34.422Z,59.25
2022-11-28T07:41:36.325Z,58.94
2022-11-28T07:46:39.523Z,59.57
2022-11-28T07:51:42.311Z,59.38
2022-11-28T07:57:11.514Z,59.20
2022-11-28T08:02:06.113Z,58.90
2022-11-28T08:07:07.955Z,59.21
2022-11-28T08:12:09.744Z,59.48
2022-11-28T08:17:11.558Z,59.33
2022-11-28T08:22:13.468Z,58.95
2022-11-28T08:27:15.244Z,58.81
2022-11-28T08:32:17.300Z,58.57
2022-11-28T08:37:19.123Z,58.90
2022-11-28T08:42:21.466Z,58.94
2022-11-28T08:47:23.355Z,58.38
2022-11-28T08:52:25.549Z,58.53
2022-11-28T08:57:27.345Z,58.60
2022-11-28T09:02:29.219Z,58.09
2022-11-28T09:07:31.196Z,58.08
2022-11-28T09:12:33.037Z,57.86
2022-11-28T09:17:34.842Z,57.84
2022-11-28T09:22:36.688Z,58.23
2022-11-28T09:27:38.508Z,58.06
2022-11-28T09:32:40.441Z,57.55
2022-11-28T09:37:42.373Z,57.96
2022-11-28T09:42:45.788Z,57.69
2022-11-28T09:47:52.250Z,57.32
2022-11-28T09:53:02.575Z,57.41
2022-11-28T09:58:24.542Z,57.04
2022-11-28T10:03:39.563Z,56.95
2022-11-28T10:09:02.972Z,56.85
2022-11-28T10:14:39.958Z,57.42
2022-11-28T10:20:09.361Z,57.28
2022-11-28T10:25:22.815Z,57.48
2022-11-28T10:30:27.488Z,57.55
2022-11-28T10:35:50.883Z,57.41
2022-11-28T10:41:13.442Z,56.67
2022-11-28T10:46:18.011Z,56.93
2022-11-28T10:51:19.844Z,57.03
2022-11-28T10:56:40.410Z,56.71
2022-11-28T11:01:46.004Z,56.68
2022-11-28T11:07:20.223Z,56.92
2022-11-28T11:12:30.722Z,56.86
2022-11-28T11:17:36.582Z,56.98
2022-11-28T11:22:38.615Z,56.26
2022-11-28T11:28:03.550Z,55.61
2022-11-28T11:33:13.958Z,56.17
2022-11-28T11:38:21.512Z,56.23
2022-11-28T11:43:29.331Z,56.48
2022-11-28T11:48:41.183Z,56.06
2022-11-28T11:53:44.174Z,55.42
2022-11-28T11:58:54.388Z,55.23
2022-11-28T12:04:23.669Z,55.78
2022-11-28T12:09:42.281Z,55.88
2022-11-28T12:14:44.956Z,56.01
2022-11-28T12:20:02.520Z,55.75
2022-11-28T12:25:10.500Z,56.48
2022-11-28T12:30:44.929Z,56.18
2022-11-28T12:36:03.303Z,56.33
2022-11-28T12:41:05.441Z,56.05
2022-11-28T12:46:22.459Z,56.09
2022-11-28T12:51:59.434Z,55.94
2022-11-28T12:57:36.762Z,55.64
2022-11-28T13:03:03.150Z,55.21
2022-11-28T13:08:23.649Z,55.59
2022-11-28T13:13:35.474Z,56.15
2022-11-28T13:18:46.000Z,55.22
2022-11-28T13:24:07.131Z,55.78
2022-11-28T13:29:20.864Z,55.39
2022-11-28T13:34:23.258Z,55.66
2022-11-28T13:39:27.842Z,55.49
2022-11-28T13:44:59.331Z,55.76
2022-11-28T13:50:25.834Z,55.56
2022-11-28T13:55:36.836Z,55.75
2022-11-28T14:00:40.988Z,55.77
2022-11-28T14:05:45.408Z,55.74
2022-11-28T14:10:58.080Z,55.98
2022-11-28T14:16:09.643Z,56.09
2022-11-28T14:21:23.561Z,55.79
2022-11-28T14:26:35.314Z,55.79
2022-11-28T14:31:39.076Z,55.27
2022-11-28T14:36:43.162Z,55.42
2022-11-28T14:42:03.935Z,55.46
2022-11-28T14:47:13.308Z,55.69
2022-11-28T14:57:45.008Z,55.77
2022-11-28T15:02:56.259Z,55.74
2022-11-28T15:08:25.541Z,55.58
2022-11-28T15:13:30.557Z,55.68
2022-11-28T15:18:33.494Z,55.87
2022-11-28T15:23:38.544Z,55.67
2022-11-28T15:28:40.421Z,55.87
2022-11-28T15:33:42.444Z,55.76
2022-11-28T15:38:44.356Z,55.52
2022-11-28T15:43:46.504Z,55.56
2022-11-28T15:48:50.834Z,55.61
2022-11-28T15:53:52.795Z,55.09
2022-11-28T15:58:55.064Z,55.42
2022-11-28T16:04:07.784Z,55.09
2022-11-28T16:09:18.936Z,55.65
2022-11-28T16:14:31.821Z,56.00
2022-11-28T16:19:36.661Z,55.81
2022-11-28T16:24:50.484Z,55.55
2022-11-28T16:29:52.357Z,55.89
2022-11-28T16:34:55.727Z,56.11
2022-11-28T16:40:14.830Z,56.14
2022-11-28T16:45:21.226Z,55.83
2022-11-28T16:50:25.206Z,56.42
2022-11-28T16:55:38.647Z,56.59
2022-11-28T17:01:03.003Z,56.62
2022-11-28T17:06:04.966Z,56.43
2022-11-28T17:11:06.862Z,56.52
2022-11-28T17:16:17.744Z,56.37
2022-11-28T17:21:33.267Z,56.50
2022-11-28T17:26:35.077Z,56.67
2022-11-28T17:31:37.472Z,56.81
2022-11-28T17:36:39.340Z,56.90
2022-11-28T17:41:41.378Z,57.07
2022-11-28T17:46:43.198Z,56.90
2022-11-28T17:51:45.755Z,56.79
2022-11-28T17:56:52.650Z,56.83
2022-11-28T18:01:54.628Z,57.01
2022-11-28T18:07:00.191Z,56.90
2022-11-28T18:12:01.980Z,56.92
2022-11-28T18:17:04.264Z,56.84
2022-11-28T18:22:08.579Z,56.77
2022-11-28T18:27:10.384Z,56.55
2022-11-28T18:32:12.325Z,56.75
2022-11-28T18:37:14.151Z,56.86
2022-11-28T18:42:17.525Z,57.05
2022-11-28T18:47:19.623Z,56.93
2022-11-28T18:52:21.464Z,56.97
2022-11-28T18:57:23.611Z,56.90
2022-11-28T19:02:25.567Z,56.74
2022-11-28T19:07:27.539Z,55.85
2022-11-28T19:12:29.430Z,56.32
2022-11-28T19:17:31.344Z,56.19
2022-11-28T19:22:35.716Z,56.04
2022-11-28T19:27:37.717Z,56.42
2022-11-28T19:32:39.537Z,56.50
2022-11-28T19:37:42.258Z,56.37
2022-11-28T19:42:44.060Z,56.60
2022-11-28T19:47:48.655Z,56.71
2022-11-28T19:52:50.625Z,56.68
2022-11-28T19:57:52.904Z,57.02
2022-11-28T20:02:55.071Z,57.12
2022-11-28T20:07:58.616Z,57.34
2022-11-28T20:13:00.764Z,57.14
2022-11-28T20:18:03.779Z,57.00
2022-11-28T20:23:06.603Z,57.05
2022-11-28T20:28:08.699Z,56.92
2022-11-28T20:33:10.774Z,57.19
2022-11-28T20:38:12.847Z,57.65
2022-11-28T20:43:14.681Z,57.57
2022-11-28T20:48:16.529Z,57.69
2022-11-28T20:53:23.679Z,57.68
2022-11-28T20:58:28.750Z,58.26
2022-11-28T21:03:30.578Z,58.45
2022-11-28T21:08:33.835Z,58.68
2022-11-28T21:13:35.831Z,58.74
2022-11-28T21:18:39.283Z,58.74
2022-11-28T21:23:42.377Z,58.36
2022-11-28T21:28:45.934Z,58.60
2022-11-28T21:33:49.194Z,58.14
2022-11-28T21:38:56.449Z,58.51
2022-11-28T21:43:59.766Z,58.46
2022-11-28T21:49:02.986Z,58.30
2022-11-28T21:54:04.957Z,58.46
2022-11-28T21:59:07.095Z,58.51
2022-11-28T22:04:10.740Z,57.96
2022-11-28T22:09:13.567Z,58.36
2022-11-28T22:14:15.786Z,58.45
2022-11-28T22:19:17.814Z,58.21
2022-11-28T22:24:19.776Z,58.07
2022-11-28T22:29:22.001Z,58.02
2022-11-28T22:34:24.021Z,58.03
2022-11-28T22:39:25.915Z,57.99
2022-11-28T22:44:27.911Z,57.83
2022-11-28T22:49:29.830Z,57.79
2022-11-28T22:54:31.811Z,57.83
2022-11-28T22:59:35.305Z,57.79
2022-11-28T23:04:38.081Z,57.59
2022-11-28T23:09:40.202Z,57.78
2022-11-28T23:14:42.444Z,57.74
2022-11-28T23:19:44.759Z,57.78
2022-11-28T23:24:46.638Z,58.09
2022-11-28T23:29:48.508Z,57.93
2022-11-28T23:34:50.473Z,57.97
2022-11-28T23:39:52.314Z,57.95
2022-11-28T23:44:54.174Z,58.12
2022-11-28T23:49:56.017Z,58.26
2022-11-28T23:54:57.929Z,58.06
